createdAt,value
2023-03-20T00:02:22.201Z,98386.53
2023-03-20T00:05:26.542Z,98384.06
2023-03-20T00:08:11.986Z,98370.88
2023-03-20T00:10:59.050Z,98358.47
2023-03-20T00:13:44.351Z,98398.63
2023-03-20T00:16:49.187Z,98391.72
2023-03-20T00:19:34.834Z,98321.41
2023-03-20T00:22:20.461Z,98378.72
2023-03-20T00:25:06.496Z,98400.06
2023-03-20T00:27:52.201Z,98399.19
2023-03-20T00:30:37.603Z,98391.09
2023-03-20T00:33:22.814Z,98392.53
2023-03-20T00:36:09.531Z,98331.47
2023-03-20T00:38:55.519Z,98389.72
2023-03-20T00:41:52.707Z,98393.72
2023-03-20T00:44:50.171Z,98395.44
2023-03-20T00:47:37.647Z,98394.53
2023-03-20T00:50:28.282Z,98398.25
2023-03-20T00:53:13.469Z,98403.78
2023-03-20T00:55:59.496Z,98399.94
2023-03-20T00:58:44.615Z,98397.94
2023-03-20T01:01:31.392Z,98401.75
2023-03-20T01:04:19.435Z,98413.47
2023-03-20T01:07:06.007Z,98406.03
2023-03-20T01:09:51.211Z,98407.56
2023-03-20T01:12:38.923Z,98406.03
2023-03-20T01:15:31.539Z,98409.19
2023-03-20T01:18:18.287Z,98372.97
2023-03-20T01:21:03.610Z,98415.13
2023-03-20T01:23:49.722Z,98404.13
2023-03-20T01:26:39.525Z,98411.91
2023-03-20T01:29:26.622Z,98416.13
2023-03-20T01:32:14.961Z,98389.47
2023-03-20T01:35:01.181Z,98415.84
2023-03-20T01:37:46.991Z,98417.66
2023-03-20T01:40:43.400Z,98411.91
2023-03-20T01:43:29.748Z,98416.53
2023-03-20T01:46:17.168Z,98416.22
2023-03-20T01:49:28.439Z,98408.94
2023-03-20T01:52:17.281Z,98411.31
2023-03-20T01:55:02.458Z,98411.97
2023-03-20T01:57:48.943Z,98386.53
2023-03-20T02:00:35.613Z,98356.72
2023-03-20T02:03:23.025Z,98412.38
2023-03-20T02:06:19.563Z,98336.38
2023-03-20T02:09:23.790Z,98396.88
2023-03-20T02:12:10.952Z,98403.44
2023-03-20T02:14:57.628Z,98338.22
2023-03-20T02:18:05.422Z,98406.53
2023-03-20T02:21:13.841Z,98399.91
2023-03-20T02:24:14.497Z,98401.25
2023-03-20T02:27:12.019Z,98401.25
2023-03-20T02:30:18.299Z,98398.78
2023-03-20T02:33:25.553Z,98396.97
2023-03-20T02:36:40.765Z,98407.88
2023-03-20T02:39:50.924Z,98410.50
2023-03-20T02:43:02.553Z,98419.22
2023-03-20T02:45:59.274Z,98412.84
2023-03-20T02:48:53.738Z,98418.97
2023-03-20T02:52:00.223Z,98417.47
2023-03-20T02:54:54.470Z,98414.53
2023-03-20T02:57:39.915Z,98404.19
2023-03-20T03:00:36.642Z,98416.63
2023-03-20T03:03:37.054Z,98414.25
2023-03-20T03:06:28.288Z,98410.25
2023-03-20T03:09:19.865Z,98383.03
2023-03-20T03:12:12.384Z,98350.13
2023-03-20T03:15:03.806Z,98407.47
2023-03-20T03:17:49.514Z,98411.91
2023-03-20T03:20:39.582Z,98361.97
2023-03-20T03:23:46.737Z,98412.84
2023-03-20T03:26:38.416Z,98411.81
2023-03-20T03:29:26.162Z,98359.56
2023-03-20T03:32:35.712Z,98423.38
2023-03-20T03:35:22.433Z,98419.41
2023-03-20T03:38:37.047Z,98430.56
2023-03-20T03:41:25.044Z,98428.66
2023-03-20T03:44:21.799Z,98431.28
2023-03-20T03:47:12.745Z,98435.72
2023-03-20T03:50:04.601Z,98436.81
2023-03-20T03:52:51.890Z,98444.34
2023-03-20T03:55:45.750Z,98436.81
2023-03-20T03:58:36.087Z,98442.66
2023-03-20T04:01:23.916Z,98444.81
2023-03-20T04:04:10.563Z,98445.63
2023-03-20T04:06:56.419Z,98434.84
2023-03-20T04:09:42.093Z,98441.72
2023-03-20T04:12:37.775Z,98437.28
2023-03-20T04:15:24.582Z,98443.53
2023-03-20T04:18:17.763Z,98446.63
2023-03-20T04:21:04.605Z,98443.38
2023-03-20T04:23:50.311Z,98391.19
2023-03-20T04:26:36.089Z,98443.25
2023-03-20T04:29:21.715Z,98443.50
2023-03-20T04:32:17.999Z,98442.19
2023-03-20T04:35:27.076Z,98450.19
2023-03-20T04:38:20.788Z,98451.19
2023-03-20T04:41:07.337Z,98449.38
2023-03-20T04:43:52.706Z,98454.13
2023-03-20T04:46:37.914Z,98457.09
2023-03-20T04:49:31.672Z,98460.72
2023-03-20T04:52:17.403Z,98438.75
2023-03-20T04:55:04.455Z,98463.91
2023-03-20T04:57:50.851Z,98459.16
2023-03-20T05:00:36.169Z,98460.75
2023-03-20T05:03:23.961Z,98461.44
2023-03-20T05:06:10.500Z,98465.16
2023-03-20T05:09:00.115Z,98458.38
2023-03-20T05:11:47.352Z,98463.78
2023-03-20T05:14:52.889Z,98460.41
2023-03-20T05:17:57.056Z,98462.22
2023-03-20T05:20:53.092Z,98461.50
2023-03-20T05:23:51.727Z,98457.53
2023-03-20T05:26:55.170Z,98462.81
2023-03-20T05:30:00.838Z,98460.88
2023-03-20T05:33:15.713Z,98462.19
2023-03-20T05:36:11.990Z,98462.44
2023-03-20T05:39:27.129Z,98422.53
2023-03-20T05:42:18.608Z,98462.53
2023-03-20T05:45:24.799Z,98449.53
2023-03-20T05:48:49.007Z,98448.66
2023-03-20T05:52:02.786Z,98444.31
2023-03-20T05:55:11.267Z,98454.13
2023-03-20T05:58:06.064Z,98452.78
2023-03-20T06:01:22.024Z,98453.19
2023-03-20T06:04:07.452Z,98457.75
2023-03-20T06:07:08.595Z,98451.44
2023-03-20T06:09:55.878Z,98452.41
2023-03-20T06:12:41.531Z,98453.03
2023-03-20T06:15:28.329Z,98461.63
2023-03-20T06:18:20.943Z,98463.72
2023-03-20T06:21:06.836Z,98463.53
2023-03-20T06:23:52.384Z,98463.09
2023-03-20T06:26:40.504Z,98465.66
2023-03-20T06:29:29.232Z,98458.31
2023-03-20T06:32:23.841Z,98446.91
2023-03-20T06:35:11.433Z,98476.84
2023-03-20T06:38:02.099Z,98430.63
2023-03-20T06:40:47.451Z,98479.75
2023-03-20T06:43:36.276Z,98481.03
2023-03-20T06:46:21.804Z,98488.06
2023-03-20T06:49:07.340Z,98474.56
2023-03-20T06:51:53.971Z,98486.13
2023-03-20T06:54:44.710Z,98487.78
2023-03-20T06:57:30.030Z,98487.06
2023-03-20T07:00:16.091Z,98485.44
2023-03-20T07:03:02.443Z,98471.81
2023-03-20T07:05:48.108Z,98481.78
2023-03-20T07:08:35.339Z,98476.16
2023-03-20T07:11:21.140Z,98456.34
2023-03-20T07:14:07.479Z,98467.50
2023-03-20T07:17:03.994Z,98485.34
2023-03-20T07:19:51.353Z,98490.72
2023-03-20T07:22:37.007Z,98489.00
2023-03-20T07:25:42.263Z,98423.34
2023-03-20T07:28:30.886Z,98478.25
2023-03-20T07:31:29.051Z,98504.53
2023-03-20T07:34:27.505Z,98510.72
2023-03-20T07:37:14.282Z,98517.19
2023-03-20T07:40:05.836Z,98516.94
2023-03-20T07:42:53.404Z,98519.66
2023-03-20T07:46:06.534Z,98523.91
2023-03-20T07:48:52.899Z,98528.19
2023-03-20T07:51:38.423Z,98529.38
2023-03-20T07:54:24.419Z,98537.38
2023-03-20T07:57:09.949Z,98532.00
2023-03-20T07:59:55.093Z,98539.38
2023-03-20T08:02:40.613Z,98534.19
2023-03-20T08:05:26.122Z,98529.72
2023-03-20T08:08:11.670Z,98527.72
2023-03-20T08:10:57.371Z,98532.72
2023-03-20T08:13:43.055Z,98536.72
2023-03-20T08:16:28.183Z,98527.91
2023-03-20T08:19:13.703Z,98532.06
2023-03-20T08:21:59.025Z,98533.91
2023-03-20T08:24:44.532Z,98539.38
2023-03-20T08:27:30.215Z,98541.75
2023-03-20T08:30:15.824Z,98532.47
2023-03-20T08:33:01.054Z,98532.31
2023-03-20T08:35:59.192Z,98493.34
2023-03-20T08:38:44.532Z,98538.56
2023-03-20T08:41:29.635Z,98537.66
2023-03-20T08:44:14.814Z,98520.38
2023-03-20T08:47:00.239Z,98520.13
2023-03-20T08:49:45.665Z,98480.53
2023-03-20T08:52:30.889Z,98497.81
2023-03-20T08:55:16.549Z,98535.28
2023-03-20T08:58:02.282Z,98542.78
2023-03-20T09:00:47.866Z,98549.06
2023-03-20T09:03:33.256Z,98542.13
2023-03-20T09:06:18.777Z,98508.63
2023-03-20T09:09:05.021Z,98526.00
2023-03-20T09:11:50.446Z,98556.59
2023-03-20T09:14:35.753Z,98555.19
2023-03-20T09:17:21.201Z,98490.94
2023-03-20T09:20:06.951Z,98556.16
2023-03-20T09:22:52.372Z,98555.69
2023-03-20T09:25:38.065Z,98559.09
2023-03-20T09:28:23.680Z,98566.84
2023-03-20T09:31:09.394Z,98555.91
2023-03-20T09:33:55.082Z,98559.28
2023-03-20T09:36:40.276Z,98560.47
2023-03-20T09:39:25.579Z,98562.88
2023-03-20T09:42:16.431Z,98568.38
2023-03-20T09:45:37.263Z,98565.19
2023-03-20T09:48:35.284Z,98553.09
2023-03-20T09:51:36.023Z,98568.25
2023-03-20T09:54:43.379Z,98580.31
2023-03-20T09:57:41.357Z,98565.88
2023-03-20T10:00:29.447Z,98523.69
2023-03-20T10:03:39.106Z,98567.31
2023-03-20T10:06:24.518Z,98567.06
2023-03-20T10:09:25.159Z,98570.78
2023-03-20T10:12:34.126Z,98567.81
2023-03-20T10:15:28.702Z,98568.69
2023-03-20T10:18:24.808Z,98568.00
2023-03-20T10:21:17.521Z,98570.09
2023-03-20T10:24:06.186Z,98566.88
2023-03-20T10:26:55.659Z,98565.06
2023-03-20T10:30:02.956Z,98560.75
2023-03-20T10:33:00.679Z,98558.53
2023-03-20T10:36:04.171Z,98557.69
2023-03-20T10:39:11.072Z,98562.84
2023-03-20T10:42:00.801Z,98557.75
2023-03-20T10:44:54.339Z,98549.91
2023-03-20T10:47:42.495Z,98552.41
2023-03-20T10:50:40.199Z,98548.03
2023-03-20T10:53:31.533Z,98543.03
2023-03-20T10:56:29.054Z,98539.69
2023-03-20T10:59:27.645Z,98537.72
2023-03-20T11:02:14.960Z,98526.41
2023-03-20T11:05:02.445Z,98533.78
2023-03-20T11:07:51.926Z,98526.34
2023-03-20T11:10:38.754Z,98514.50
2023-03-20T11:13:39.263Z,98522.25
2023-03-20T11:16:35.540Z,98515.22
2023-03-20T11:19:23.553Z,98520.97
2023-03-20T11:22:23.514Z,98508.25
2023-03-20T11:25:24.908Z,98507.06
2023-03-20T11:28:26.881Z,98506.00
2023-03-20T11:31:27.604Z,98498.06
2023-03-20T11:34:15.833Z,98487.59
2023-03-20T11:37:10.508Z,98464.84
2023-03-20T11:40:31.286Z,98489.50
2023-03-20T11:43:25.098Z,98477.97
2023-03-20T11:46:13.610Z,98476.66
2023-03-20T11:49:05.921Z,98479.69
2023-03-20T11:51:52.646Z,98480.38
2023-03-20T11:54:45.815Z,98477.91
2023-03-20T11:57:41.058Z,98477.91
2023-03-20T12:00:38.029Z,98438.63
2023-03-20T12:03:41.629Z,98471.88
2023-03-20T12:06:37.459Z,98474.16
2023-03-20T12:09:51.970Z,98468.59
2023-03-20T12:12:56.711Z,98473.16
2023-03-20T12:15:47.089Z,98470.50
2023-03-20T12:18:38.899Z,98462.75
2023-03-20T12:21:46.628Z,98471.16
2023-03-20T12:24:45.179Z,98464.53
2023-03-20T12:27:36.855Z,98439.72
2023-03-20T12:31:04.087Z,98457.09
2023-03-20T12:33:52.479Z,98460.88
2023-03-20T12:36:41.591Z,98468.03
2023-03-20T12:39:33.999Z,98461.91
2023-03-20T12:42:49.624Z,98450.78
2023-03-20T12:45:42.688Z,98456.31
2023-03-20T12:48:41.540Z,98451.63
2023-03-20T12:51:47.108Z,98444.50
2023-03-20T12:54:51.050Z,98443.94
2023-03-20T12:57:52.770Z,98435.38
2023-03-20T13:00:46.007Z,98429.78
2023-03-20T13:03:46.408Z,98427.00
2023-03-20T13:06:52.692Z,98431.59
2023-03-20T13:09:56.803Z,98431.72
2023-03-20T13:13:16.268Z,98416.06
2023-03-20T13:16:24.060Z,98421.69
2023-03-20T13:19:25.999Z,98422.75
2023-03-20T13:22:28.071Z,98410.69
2023-03-20T13:25:40.823Z,98293.88
2023-03-20T13:28:56.844Z,98409.63
2023-03-20T13:32:01.141Z,98410.47
2023-03-20T13:35:14.823Z,98403.34
2023-03-20T13:38:12.166Z,98406.41
2023-03-20T13:41:02.219Z,98395.78
2023-03-20T13:43:51.147Z,98397.28
2023-03-20T13:46:45.900Z,98395.88
2023-03-20T13:49:38.426Z,98400.28
2023-03-20T13:52:28.708Z,98392.22
2023-03-20T13:55:24.020Z,98390.22
2023-03-20T13:58:43.562Z,98382.16
2023-03-20T14:01:46.062Z,98382.94
2023-03-20T14:04:32.530Z,98364.06
2023-03-20T14:07:30.118Z,98376.78
2023-03-20T14:10:21.229Z,98384.22
2023-03-20T14:13:19.135Z,98378.06
2023-03-20T14:16:08.850Z,98365.63
2023-03-20T14:19:06.343Z,98374.38
2023-03-20T14:21:55.519Z,98373.47
2023-03-20T14:24:50.884Z,98385.78
2023-03-20T14:27:54.581Z,98376.97
2023-03-20T14:30:39.872Z,98383.56
2023-03-20T14:33:30.328Z,98373.28
2023-03-20T14:36:21.432Z,98370.13
2023-03-20T14:39:38.703Z,98369.13
2023-03-20T14:42:39.716Z,98372.41
2023-03-20T14:45:51.564Z,98378.09
2023-03-20T14:48:50.589Z,98369.63
2023-03-20T14:51:45.788Z,98374.38
2023-03-20T14:54:31.058Z,98375.44
2023-03-20T14:57:19.407Z,98369.72
2023-03-20T15:00:05.775Z,98372.81
2023-03-20T15:02:53.782Z,98371.78
2023-03-20T15:05:41.112Z,98372.72
2023-03-20T15:08:31.388Z,98344.22
2023-03-20T15:11:17.376Z,98365.97
2023-03-20T15:14:08.771Z,98302.22
2023-03-20T15:16:58.921Z,98343.75
2023-03-20T15:19:45.016Z,98354.88
2023-03-20T15:22:30.391Z,98347.94
2023-03-20T15:25:17.607Z,98336.78
2023-03-20T15:28:07.923Z,98354.50
2023-03-20T15:30:57.315Z,98358.94
2023-03-20T15:33:42.914Z,98267.81
2023-03-20T15:36:34.543Z,98356.03
2023-03-20T15:39:23.286Z,98358.69
2023-03-20T15:42:14.772Z,98361.78
2023-03-20T15:45:00.222Z,98359.28
2023-03-20T15:47:45.387Z,98359.88
2023-03-20T15:50:38.642Z,98310.94
2023-03-20T15:53:30.694Z,98367.97
2023-03-20T15:56:19.728Z,98367.38
2023-03-20T15:59:05.175Z,98365.50
2023-03-20T16:01:55.611Z,98354.03
2023-03-20T16:04:50.913Z,98375.59
2023-03-20T16:07:36.215Z,98368.25
2023-03-20T16:10:28.677Z,98369.56
2023-03-20T16:13:15.309Z,98357.53
2023-03-20T16:16:03.193Z,98373.66
2023-03-20T16:18:49.348Z,98348.00
2023-03-20T16:21:38.799Z,98365.22
2023-03-20T16:24:30.736Z,98308.88
2023-03-20T16:27:24.226Z,98366.50
2023-03-20T16:30:16.679Z,98373.31
2023-03-20T16:33:07.081Z,98366.31
2023-03-20T16:35:52.481Z,98343.09
2023-03-20T16:38:37.928Z,98367.19
2023-03-20T16:41:34.866Z,98362.44
2023-03-20T16:44:28.102Z,98361.53
2023-03-20T16:47:13.718Z,98376.97
2023-03-20T16:50:21.572Z,98370.16
2023-03-20T16:53:16.101Z,98373.09
2023-03-20T16:56:02.730Z,98368.63
2023-03-20T16:58:47.974Z,98371.63
2023-03-20T17:01:33.582Z,98340.28
2023-03-20T17:04:33.570Z,98355.09
2023-03-20T17:07:19.922Z,98372.78
2023-03-20T17:10:17.733Z,98364.66
2023-03-20T17:13:03.202Z,98367.63
2023-03-20T17:15:48.483Z,98371.69
2023-03-20T17:18:37.700Z,98379.44
2023-03-20T17:21:22.841Z,98381.22
2023-03-20T17:24:09.434Z,98382.59
2023-03-20T17:26:55.645Z,98383.47
2023-03-20T17:29:41.792Z,98387.81
2023-03-20T17:32:27.274Z,98389.38
2023-03-20T17:35:12.900Z,98336.09
2023-03-20T17:37:59.559Z,98397.66
2023-03-20T17:40:45.583Z,98399.41
2023-03-20T17:43:31.210Z,98389.94
2023-03-20T17:46:22.166Z,98360.53
2023-03-20T17:49:13.577Z,98411.31
2023-03-20T17:51:58.756Z,98344.19
2023-03-20T17:54:45.035Z,98416.50
2023-03-20T17:57:38.671Z,98419.59
2023-03-20T18:00:24.546Z,98425.16
2023-03-20T18:03:10.564Z,98423.31
2023-03-20T18:05:56.215Z,98430.69
2023-03-20T18:08:41.822Z,98435.97
2023-03-20T18:11:28.013Z,98427.28
2023-03-20T18:14:13.415Z,98430.53
2023-03-20T18:17:01.593Z,98429.44
2023-03-20T18:19:47.691Z,98432.50
2023-03-20T18:22:33.160Z,98434.44
2023-03-20T18:25:24.497Z,98443.78
2023-03-20T18:28:15.500Z,98440.81
2023-03-20T18:31:01.038Z,98445.34
2023-03-20T18:33:52.336Z,98445.16
2023-03-20T18:36:37.543Z,98445.72
2023-03-20T18:39:24.449Z,98447.16
2023-03-20T18:42:09.778Z,98440.72
2023-03-20T18:44:54.946Z,98387.78
2023-03-20T18:47:40.551Z,98456.34
2023-03-20T18:50:32.074Z,98451.31
2023-03-20T18:53:26.647Z,98457.25
2023-03-20T18:56:18.280Z,98459.66
2023-03-20T18:59:04.954Z,98469.19
2023-03-20T19:01:53.530Z,98459.56
2023-03-20T19:04:39.436Z,98465.50
2023-03-20T19:07:24.846Z,98476.00
2023-03-20T19:10:29.059Z,98475.44
2023-03-20T19:13:17.783Z,98366.47
2023-03-20T19:16:04.051Z,98455.81
2023-03-20T19:18:49.284Z,98464.31
2023-03-20T19:21:35.283Z,98454.50
2023-03-20T19:24:20.520Z,98467.38
2023-03-20T19:27:06.387Z,98472.59
2023-03-20T19:29:51.757Z,98467.44
2023-03-20T19:32:37.145Z,98460.59
2023-03-20T19:38:29.422Z,98460.03
2023-03-20T19:41:21.325Z,98404.34
2023-03-20T19:44:07.744Z,98419.09
2023-03-20T19:46:53.769Z,98462.19
2023-03-20T19:49:39.449Z,98416.81
2023-03-20T19:52:32.170Z,98468.47
2023-03-20T19:55:17.560Z,98482.47
2023-03-20T19:58:03.591Z,98476.63
2023-03-20T20:01:11.620Z,98442.09
2023-03-20T20:03:55.035Z,98474.84
2023-03-20T20:06:42.760Z,98473.38
2023-03-20T20:09:27.941Z,98473.25
2023-03-20T20:12:13.927Z,98466.94
2023-03-20T20:15:00.397Z,98469.44
2023-03-20T20:17:47.581Z,98472.44
2023-03-20T20:20:34.646Z,98473.53
2023-03-20T20:23:26.150Z,98474.41
2023-03-20T20:26:11.670Z,98470.66
2023-03-20T20:28:59.869Z,98477.22
2023-03-20T20:31:45.393Z,98464.22
2023-03-20T20:40:45.500Z,98471.22
2023-03-20T20:44:06.728Z,98481.25
2023-03-20T20:46:36.061Z,98477.59
2023-03-20T20:49:21.202Z,98479.28
2023-03-20T20:52:07.481Z,98473.53
2023-03-20T20:54:52.912Z,98474.34
2023-03-20T20:57:38.472Z,98479.44
2023-03-20T21:00:34.063Z,98431.31
2023-03-20T21:03:26.858Z,98480.56
2023-03-20T21:06:12.324Z,98478.44
2023-03-20T21:08:57.513Z,98477.47
2023-03-20T21:11:42.408Z,98480.16
2023-03-20T21:14:27.524Z,98482.97
2023-03-20T21:17:12.740Z,98469.00
2023-03-20T21:19:58.136Z,98472.75
2023-03-20T21:22:43.322Z,98471.50
2023-03-20T21:25:39.545Z,98386.03
2023-03-20T21:28:26.118Z,98434.09
2023-03-20T21:31:24.491Z,98463.22
2023-03-20T21:34:10.888Z,98473.22
2023-03-20T21:36:59.642Z,98457.56
2023-03-20T21:39:46.099Z,98479.53
2023-03-20T21:42:31.312Z,98472.81
2023-03-20T21:49:03.915Z,98473.78
2023-03-20T21:58:17.344Z,98416.53
2023-03-20T22:07:35.963Z,98452.75
2023-03-20T22:10:39.788Z,98465.50
2023-03-20T22:17:10.204Z,98430.16
2023-03-20T22:20:07.185Z,98402.91
2023-03-20T22:26:04.812Z,98484.94
2023-03-20T22:32:20.776Z,98471.78
2023-03-20T22:35:37.973Z,98446.25
2023-03-20T22:47:04.970Z,98473.78
2023-03-20T22:49:50.338Z,98420.97
2023-03-20T22:52:48.279Z,98472.81
2023-03-20T22:55:34.713Z,98470.81
2023-03-20T22:58:20.143Z,98469.47
2023-03-20T23:01:06.122Z,98465.22
2023-03-20T23:03:51.158Z,98473.44
2023-03-20T23:06:36.334Z,98462.59
2023-03-20T23:09:21.506Z,98461.53
2023-03-20T23:12:06.926Z,98454.09
2023-03-20T23:14:52.427Z,98459.66
2023-03-20T23:17:37.965Z,98464.28
2023-03-20T23:20:23.474Z,98459.53
2023-03-20T23:23:09.117Z,98462.63
2023-03-20T23:26:03.397Z,98469.88
2023-03-20T23:28:50.926Z,98465.75
2023-03-20T23:31:36.324Z,98460.69
2023-03-20T23:34:21.632Z,98456.13
2023-03-20T23:37:06.845Z,98456.91
2023-03-20T23:39:52.079Z,98455.44
2023-03-20T23:42:37.657Z,98456.75
2023-03-20T23:45:22.746Z,98438.84
2023-03-20T23:48:08.222Z,98459.03
2023-03-20T23:50:53.897Z,98452.31
2023-03-20T23:53:39.002Z,98452.31
2023-03-20T23:56:24.248Z,98452.00
2023-03-20T23:59:20.543Z,98459.38
